Time;durP1;ratioP1;P1;durP2;ratioP2;P2;SDS_P1;SDS_P2;PMS_P1;PMS_P2;Temp;Humidity;BMP_temperature;BMP_pressure;BME280_temperature;BME280_humidity;BME280_pressure;Samples;Min_cycle;Max_cycle;Signal;HPM_P1;HPM_P2
2021/11/12 00:13:17;;;;;;;73.22;40.95;;;;;;;;;;2060220;28;20675;-65
2021/11/12 00:14:24;;;;;;;68.72;40.50;;;;;;;;;;2064067;28;20303;-64
2021/11/12 00:15:24;;;;;;;73.25;42.33;;;;;;;;;;2070237;28;20235;-65
2021/11/12 00:16:27;;;;;;;64.80;40.40;;;;;;;;;;2072277;28;20700;-64
2021/11/12 00:17:30;;;;;;;77.35;41.97;;;;;;;;;;2072025;28;20172;-68
2021/11/12 00:18:33;;;;;;;78.35;43.88;;;;;;;;;;2056412;28;20739;-64
2021/11/12 00:19:34;;;;;;;76.70;41.95;;;;;;;;;;2057222;28;20181;-64
2021/11/12 00:20:34;;;;;;;75.95;43.30;;;;;;;;;;2070518;28;20212;-64
2021/11/12 00:21:34;;;;;;;72.00;41.20;;;;;;;;;;2059476;28;20175;-64
2021/11/12 00:22:35;;;;;;;72.68;42.03;;;;;;;;;;2063882;28;20185;-57
2021/11/12 00:23:38;;;;;;;67.28;40.53;;;;;;;;;;2064326;28;20236;-58
2021/11/12 00:24:38;;;;;;;71.20;41.08;;;;;;;;;;2063589;28;20201;-59
2021/11/12 00:25:41;;;;;;;67.95;39.95;;;;;;;;;;2065254;28;20174;-57
2021/11/12 00:26:41;;;;;;;71.95;41.83;;;;;;;;;;2061852;28;20189;-62
2021/11/12 00:27:42;;;;;;;73.63;42.80;;;;;;;;;;2064187;28;20169;-59
2021/11/12 00:28:51;;;;;;;71.10;42.00;;;;;;;;;;2064769;28;20765;-55
2021/11/12 00:31:22;;;;;;;78.93;42.50;;;;;;;;;;2065996;28;20661;-58
2021/11/12 00:32:35;;;;;;;84.22;44.13;;;;;;;;;;2063589;28;20204;-56
2021/11/12 00:34:55;;;;;;;85.03;46.00;;;;;;;;;;2064456;28;20204;-58
2021/11/12 00:36:16;;;;;;;88.05;45.83;;;;;;;;;;2062442;28;20719;-58
2021/11/12 00:38:20;;;;;;;98.18;44.67;;;;;;;;;;2062907;28;20178;-60
2021/11/12 00:39:26;;;;;;;86.63;46.63;;;;;;;;;;2062773;28;20265;-54
2021/11/12 00:40:30;;;;;;;88.15;44.78;;;;;;;;;;2061429;28;20583;-58
2021/11/12 00:41:41;;;;;;;86.97;44.00;;;;;;;;;;2074203;28;20227;-60
2021/11/12 00:43:04;;;;;;;80.78;43.88;;;;;;;;;;2074667;28;20672;-55
2021/11/12 00:45:22;;;;;;;91.88;45.70;;;;;;;;;;2061748;28;20172;-62
2021/11/12 00:48:58;;;;;;;96.53;46.28;;;;;;;;;;2065343;28;20189;-60
2021/11/12 00:51:19;;;;;;;89.95;43.13;;;;;;;;;;2065320;28;20223;-59
2021/11/12 00:52:38;;;;;;;92.28;46.40;;;;;;;;;;2062314;28;20618;-54
2021/11/12 00:53:42;;;;;;;95.07;45.13;;;;;;;;;;2063526;28;20189;-59
2021/11/12 00:54:43;;;;;;;100.45;48.55;;;;;;;;;;2064898;28;20205;-56
2021/11/12 00:55:45;;;;;;;90.13;46.30;;;;;;;;;;2066270;28;20576;-58
2021/11/12 00:56:47;;;;;;;98.82;47.75;;;;;;;;;;2066704;28;20673;-61
2021/11/12 00:57:47;;;;;;;97.57;43.55;;;;;;;;;;2063346;28;20193;-57
2021/11/12 00:58:48;;;;;;;91.07;45.90;;;;;;;;;;2065435;28;20260;-55
2021/11/12 00:59:48;;;;;;;92.38;46.08;;;;;;;;;;2057565;28;20598;-60
2021/11/12 01:00:48;;;;;;;86.63;46.10;;;;;;;;;;2065445;28;20183;-59
2021/11/12 01:01:49;;;;;;;90.72;45.28;;;;;;;;;;2065325;28;20581;-57
2021/11/12 01:02:49;;;;;;;88.85;45.95;;;;;;;;;;2066176;28;20178;-58
2021/11/12 01:03:50;;;;;;;96.38;45.83;;;;;;;;;;2066121;28;20196;-58
2021/11/12 01:04:50;;;;;;;94.57;45.63;;;;;;;;;;2073431;28;20220;-58
2021/11/12 01:05:50;;;;;;;100.20;46.97;;;;;;;;;;2073574;28;20169;-55
2021/11/12 01:06:51;;;;;;;96.55;47.53;;;;;;;;;;2065161;28;20267;-58
2021/11/12 01:07:51;;;;;;;95.88;45.72;;;;;;;;;;2065815;28;20201;-60
2021/11/12 01:08:52;;;;;;;92.65;46.30;;;;;;;;;;2072785;28;20575;-60
2021/11/12 01:09:52;;;;;;;96.22;47.03;;;;;;;;;;2065609;28;20810;-55
2021/11/12 01:10:53;;;;;;;104.30;47.92;;;;;;;;;;2056057;28;20647;-57
2021/11/12 01:11:53;;;;;;;102.97;47.67;;;;;;;;;;2065157;28;20233;-59
2021/11/12 01:12:53;;;;;;;105.15;48.47;;;;;;;;;;2064105;28;20205;-58
2021/11/12 01:13:54;;;;;;;104.07;47.80;;;;;;;;;;2065994;28;20680;-60
2021/11/12 01:14:55;;;;;;;107.57;46.40;;;;;;;;;;2064742;28;20196;-61
2021/11/12 01:15:56;;;;;;;100.28;46.90;;;;;;;;;;2066042;28;20260;-58
2021/11/12 01:16:56;;;;;;;99.07;47.08;;;;;;;;;;2066325;28;20181;-57
2021/11/12 01:17:56;;;;;;;103.97;47.85;;;;;;;;;;2066227;28;20170;-61
2021/11/12 01:18:58;;;;;;;94.13;45.95;;;;;;;;;;2073919;28;20185;-59
2021/11/12 01:19:59;;;;;;;101.20;46.95;;;;;;;;;;2073473;28;20180;-61
2021/11/12 01:20:59;;;;;;;104.13;47.00;;;;;;;;;;2059851;28;20197;-56
2021/11/12 01:21:59;;;;;;;90.28;44.83;;;;;;;;;;2066029;28;20174;-55
2021/11/12 01:23:00;;;;;;;102.30;47.25;;;;;;;;;;2066469;28;20180;-53
2021/11/12 01:24:00;;;;;;;107.20;46.85;;;;;;;;;;2066261;28;20182;-58
2021/11/12 01:25:01;;;;;;;96.55;45.90;;;;;;;;;;2065676;28;20196;-60
2021/11/12 01:26:01;;;;;;;99.15;44.83;;;;;;;;;;2065626;28;20193;-53
2021/11/12 01:27:02;;;;;;;92.90;44.90;;;;;;;;;;2065767;28;20676;-55
2021/11/12 01:28:03;;;;;;;95.60;43.97;;;;;;;;;;2065686;28;20257;-56
2021/11/12 01:29:03;;;;;;;96.93;42.47;;;;;;;;;;2066165;28;20186;-60
2021/11/12 01:30:04;;;;;;;102.47;44.47;;;;;;;;;;2065230;28;20205;-60
2021/11/12 01:31:04;;;;;;;100.38;43.55;;;;;;;;;;2060595;28;20185;-56
2021/11/12 01:32:26;;;;;;;100.05;43.92;;;;;;;;;;2066452;28;20304;-58
2021/11/12 01:33:27;;;;;;;100.93;44.38;;;;;;;;;;2065713;28;20213;-63
2021/11/12 01:34:28;;;;;;;106.30;44.85;;;;;;;;;;2065907;28;20194;-64
2021/11/12 01:35:29;;;;;;;95.05;43.05;;;;;;;;;;2065550;28;20178;-60
2021/11/12 01:36:32;;;;;;;99.50;44.45;;;;;;;;;;2065261;28;20228;-63
2021/11/12 01:37:34;;;;;;;93.43;43.97;;;;;;;;;;2066934;28;20182;-61
2021/11/12 01:38:34;;;;;;;98.20;44.03;;;;;;;;;;2066028;28;20173;-61
2021/11/12 01:39:34;;;;;;;93.85;43.15;;;;;;;;;;2065962;28;20661;-61
2021/11/12 01:40:35;;;;;;;111.03;46.40;;;;;;;;;;2071446;28;20261;-59
2021/11/12 01:41:39;;;;;;;86.07;40.67;;;;;;;;;;2066417;28;20177;-59
2021/11/12 01:42:54;;;;;;;93.60;43.17;;;;;;;;;;2065783;28;20177;-62
2021/11/12 01:43:56;;;;;;;99.22;43.53;;;;;;;;;;2064404;28;20180;-55
2021/11/12 01:45:01;;;;;;;99.35;42.75;;;;;;;;;;2065592;28;20232;-64
2021/11/12 01:47:23;;;;;;;85.93;40.00;;;;;;;;;;2057870;28;20249;-61
2021/11/12 01:48:37;;;;;;;95.97;42.33;;;;;;;;;;2065764;28;20164;-59
2021/11/12 01:49:49;;;;;;;93.55;40.90;;;;;;;;;;2065694;28;20201;-63
2021/11/12 01:50:57;;;;;;;83.85;39.63;;;;;;;;;;2064803;28;20348;-59
2021/11/12 01:53:12;;;;;;;85.00;39.30;;;;;;;;;;2065182;28;20252;-62
2021/11/12 02:00:08;;;;;;;78.90;37.70;;;;;;;;;;2066486;28;20256;-62
2021/11/12 02:01:09;;;;;;;84.72;39.97;;;;;;;;;;2065185;28;20276;-65
2021/11/12 02:02:09;;;;;;;91.97;39.80;;;;;;;;;;2065635;28;20561;-64
2021/11/12 02:03:09;;;;;;;90.20;40.75;;;;;;;;;;2061017;28;20590;-64
2021/11/12 02:04:10;;;;;;;84.65;38.67;;;;;;;;;;2066185;28;20228;-62
2021/11/12 02:05:11;;;;;;;78.18;39.47;;;;;;;;;;2066158;28;20261;-60
2021/11/12 02:06:15;;;;;;;73.07;37.35;;;;;;;;;;2064953;28;20197;-62
2021/11/12 02:07:15;;;;;;;83.03;39.08;;;;;;;;;;2072912;28;20180;-65
2021/11/12 02:08:16;;;;;;;86.18;39.78;;;;;;;;;;2072957;28;20192;-64
2021/11/12 02:09:20;;;;;;;84.32;39.72;;;;;;;;;;2065944;28;20177;-62
2021/11/12 02:10:23;;;;;;;82.70;38.53;;;;;;;;;;2065604;28;20178;-64
2021/11/12 02:11:23;;;;;;;78.47;38.83;;;;;;;;;;2063735;28;20229;-65
2021/11/12 02:12:31;;;;;;;82.10;38.38;;;;;;;;;;2062797;28;20575;-62
2021/11/12 02:13:34;;;;;;;84.60;38.45;;;;;;;;;;2066098;28;20161;-61
2021/11/12 02:14:34;;;;;;;79.32;37.15;;;;;;;;;;2066134;28;20221;-63
2021/11/12 02:15:37;;;;;;;83.43;38.60;;;;;;;;;;2065129;28;20166;-64
2021/11/12 02:16:43;;;;;;;77.72;37.75;;;;;;;;;;2061340;28;20186;-64
2021/11/12 02:17:54;;;;;;;74.47;37.20;;;;;;;;;;2064725;28;20193;-62
2021/11/12 02:18:55;;;;;;;79.15;38.60;;;;;;;;;;2065289;28;20220;-62
2021/11/12 02:20:02;;;;;;;72.35;38.13;;;;;;;;;;2065495;28;20189;-67
2021/11/12 02:21:11;;;;;;;67.32;36.28;;;;;;;;;;2059356;28;20186;-65
2021/11/12 02:22:13;;;;;;;74.53;37.13;;;;;;;;;;2064862;28;20201;-63
2021/11/12 02:23:13;;;;;;;74.18;37.10;;;;;;;;;;2064942;28;20285;-65
2021/11/12 02:24:15;;;;;;;69.68;37.40;;;;;;;;;;2064533;28;20217;-64
2021/11/12 02:25:25;;;;;;;80.60;38.15;;;;;;;;;;2064581;28;20177;-65
2021/11/12 02:26:27;;;;;;;69.88;36.42;;;;;;;;;;2063859;28;20220;-64
2021/11/12 02:27:36;;;;;;;74.38;36.55;;;;;;;;;;2062706;28;20528;-65
2021/11/12 02:28:42;;;;;;;71.15;36.00;;;;;;;;;;2059578;28;20733;-67
2021/11/12 02:29:52;;;;;;;68.72;36.13;;;;;;;;;;2065144;28;20213;-65
2021/11/12 02:30:53;;;;;;;66.90;36.00;;;;;;;;;;2061363;28;20186;-62
2021/11/12 02:31:53;;;;;;;75.68;36.53;;;;;;;;;;2066228;28;20209;-65
2021/11/12 02:32:57;;;;;;;70.28;35.92;;;;;;;;;;2067273;28;20236;-64
2021/11/12 02:34:03;;;;;;;65.07;34.97;;;;;;;;;;2073181;28;20181;-64
2021/11/12 02:35:03;;;;;;;77.80;38.08;;;;;;;;;;2069467;28;20169;-65
2021/11/12 02:36:06;;;;;;;72.47;36.97;;;;;;;;;;2065661;28;20173;-64
2021/11/12 02:37:06;;;;;;;69.47;35.88;;;;;;;;;;2065316;28;20560;-63
2021/11/12 02:38:07;;;;;;;70.32;36.50;;;;;;;;;;2061402;28;20202;-64
2021/11/12 02:39:09;;;;;;;69.30;36.53;;;;;;;;;;2065293;28;20283;-64
2021/11/12 02:40:10;;;;;;;68.88;35.67;;;;;;;;;;2065115;28;20514;-65
2021/11/12 02:41:10;;;;;;;67.63;35.53;;;;;;;;;;2065712;28;20232;-63
2021/11/12 02:42:12;;;;;;;65.25;35.10;;;;;;;;;;2065559;28;20179;-65
2021/11/12 02:43:12;;;;;;;65.75;33.95;;;;;;;;;;2064865;28;20208;-65
2021/11/12 02:44:13;;;;;;;68.93;34.92;;;;;;;;;;2065811;28;20189;-63
2021/11/12 02:45:13;;;;;;;62.60;33.90;;;;;;;;;;2065906;28;20169;-61
2021/11/12 02:46:15;;;;;;;66.13;35.08;;;;;;;;;;2065403;28;20190;-59
2021/11/12 02:47:17;;;;;;;61.22;34.40;;;;;;;;;;2064536;28;20176;-63
2021/11/12 02:48:18;;;;;;;63.28;35.15;;;;;;;;;;2062607;28;20173;-62
2021/11/12 02:49:18;;;;;;;67.75;36.05;;;;;;;;;;2061565;28;20208;-64
2021/11/12 02:50:20;;;;;;;66.35;35.50;;;;;;;;;;2065644;28;20170;-63
2021/11/12 02:51:25;;;;;;;65.13;33.92;;;;;;;;;;2067514;28;20268;-66
2021/11/12 02:52:26;;;;;;;65.40;33.88;;;;;;;;;;2066705;28;20209;-64
2021/11/12 02:53:26;;;;;;;64.30;36.88;;;;;;;;;;2065562;28;20201;-65
2021/11/12 02:54:26;;;;;;;67.38;34.83;;;;;;;;;;2062271;28;20194;-64
2021/11/12 02:55:26;;;;;;;63.42;33.45;;;;;;;;;;2062498;28;20217;-63
2021/11/12 02:56:31;;;;;;;68.63;35.58;;;;;;;;;;2065034;28;20182;-61
2021/11/12 02:57:34;;;;;;;72.57;35.45;;;;;;;;;;2060779;28;20183;-64
2021/11/12 02:58:37;;;;;;;65.50;34.83;;;;;;;;;;2063045;28;20170;-63
2021/11/12 02:59:38;;;;;;;64.25;33.83;;;;;;;;;;2064238;28;20193;-64
2021/11/12 03:00:40;;;;;;;63.88;35.05;;;;;;;;;;2064044;28;20212;-64
2021/11/12 03:01:46;;;;;;;66.95;35.35;;;;;;;;;;2059812;28;20185;-64
2021/11/12 03:02:46;;;;;;;69.60;34.55;;;;;;;;;;2065392;28;20178;-61
2021/11/12 03:03:46;;;;;;;63.17;32.47;;;;;;;;;;2064431;28;20180;-65
2021/11/12 03:04:47;;;;;;;61.38;33.28;;;;;;;;;;2064344;28;20201;-65
2021/11/12 03:05:47;;;;;;;60.80;33.85;;;;;;;;;;2064954;28;20185;-64
2021/11/12 03:06:48;;;;;;;65.55;35.13;;;;;;;;;;2064531;28;20223;-63
2021/11/12 03:07:48;;;;;;;64.60;32.25;;;;;;;;;;2064953;28;20180;-63
2021/11/12 03:08:49;;;;;;;68.90;34.08;;;;;;;;;;2064071;28;20231;-62
2021/11/12 03:09:49;;;;;;;61.90;34.78;;;;;;;;;;2063828;28;20185;-62
2021/11/12 03:10:53;;;;;;;66.97;34.03;;;;;;;;;;2065102;28;20201;-63
2021/11/12 03:11:53;;;;;;;61.17;34.03;;;;;;;;;;2062629;28;20221;-64
2021/11/12 03:12:54;;;;;;;65.80;35.13;;;;;;;;;;2064940;28;20170;-63
2021/11/12 03:13:54;;;;;;;63.33;32.58;;;;;;;;;;2064128;28;20169;-61
2021/11/12 03:14:54;;;;;;;62.53;35.30;;;;;;;;;;2065685;28;20192;-62
2021/11/12 03:15:55;;;;;;;61.92;34.38;;;;;;;;;;2065137;28;20188;-62
2021/11/12 03:16:56;;;;;;;61.90;35.47;;;;;;;;;;2065685;28;20264;-63
2021/11/12 03:17:57;;;;;;;63.75;35.35;;;;;;;;;;2063717;28;20178;-64
2021/11/12 03:18:58;;;;;;;62.35;33.72;;;;;;;;;;2060331;28;20912;-62
2021/11/12 03:19:58;;;;;;;69.43;36.53;;;;;;;;;;2064499;28;20169;-64
2021/11/12 03:21:01;;;;;;;69.20;37.60;;;;;;;;;;2064171;28;20170;-65
2021/11/12 03:22:04;;;;;;;62.88;35.83;;;;;;;;;;2060062;28;20213;-62
2021/11/12 03:23:12;;;;;;;68.40;36.63;;;;;;;;;;2064449;28;20189;-60
2021/11/12 03:26:49;;;;;;;69.35;36.50;;;;;;;;;;2066208;28;20195;-62
2021/11/12 03:28:03;;;;;;;72.10;37.70;;;;;;;;;;2064610;28;20216;-61
2021/11/12 03:30:43;;;;;;;68.55;36.88;;;;;;;;;;2063786;28;20198;-67
2021/11/12 03:47:04;;;;;;;76.32;38.45;;;;;;;;;;2059649;28;20170;-64
2021/11/12 04:02:29;;;;;;;66.60;33.67;;;;;;;;;;2062693;28;20274;-62
2021/11/12 04:04:48;;;;;;;72.43;37.28;;;;;;;;;;2062877;28;20217;-66
2021/11/12 04:07:37;;;;;;;76.60;36.85;;;;;;;;;;2066115;28;20264;-63
2021/11/12 04:18:00;;;;;;;80.22;40.50;;;;;;;;;;2065073;28;20261;-62
2021/11/12 04:40:55;;;;;;;85.53;41.72;;;;;;;;;;2064686;28;20165;-63
2021/11/12 05:33:27;;;;;;;86.57;42.80;;;;;;;;;;2060617;28;20185;-58
2021/11/12 05:44:32;;;;;;;74.00;41.90;;;;;;;;;;2066247;28;20189;-62
2021/11/12 05:51:58;;;;;;;85.00;44.83;;;;;;;;;;2065478;28;20170;-63
2021/11/12 05:55:36;;;;;;;78.60;41.92;;;;;;;;;;2066010;28;20181;-61
2021/11/12 05:56:37;;;;;;;73.90;42.22;;;;;;;;;;2067625;28;20550;-63
2021/11/12 05:57:38;;;;;;;76.57;43.88;;;;;;;;;;2066955;28;20170;-64
2021/11/12 05:58:39;;;;;;;79.53;44.40;;;;;;;;;;2067318;28;20235;-63
2021/11/12 05:59:39;;;;;;;87.47;43.92;;;;;;;;;;2067182;28;20646;-63
2021/11/12 06:00:40;;;;;;;80.07;44.00;;;;;;;;;;2066380;28;20661;-63
2021/11/12 06:01:42;;;;;;;72.03;42.20;;;;;;;;;;2066442;28;20172;-63
2021/11/12 06:02:43;;;;;;;73.70;42.20;;;;;;;;;;2057966;28;20182;-63
2021/11/12 06:03:43;;;;;;;77.38;41.65;;;;;;;;;;2070044;28;20688;-64
2021/11/12 06:04:43;;;;;;;75.78;44.67;;;;;;;;;;2068318;28;20232;-63
2021/11/12 06:05:44;;;;;;;72.63;42.13;;;;;;;;;;2063900;28;20181;-64
2021/11/12 06:06:45;;;;;;;78.53;41.50;;;;;;;;;;2070527;28;20251;-60
2021/11/12 06:07:47;;;;;;;83.45;45.55;;;;;;;;;;2076340;28;20196;-63
2021/11/12 06:08:48;;;;;;;74.53;41.88;;;;;;;;;;2060309;28;20262;-67
2021/11/12 06:09:48;;;;;;;74.20;42.45;;;;;;;;;;2080705;28;20254;-67
2021/11/12 06:10:48;;;;;;;72.57;41.53;;;;;;;;;;2062008;28;20170;-64
2021/11/12 06:11:52;;;;;;;75.30;42.40;;;;;;;;;;2058616;28;20200;-63
2021/11/12 06:12:52;;;;;;;70.55;41.90;;;;;;;;;;2074027;28;20713;-65
2021/11/12 06:13:56;;;;;;;72.82;42.55;;;;;;;;;;2073840;28;20179;-64
2021/11/12 06:14:57;;;;;;;71.28;42.40;;;;;;;;;;2075816;28;20169;-64
2021/11/12 06:15:57;;;;;;;68.20;41.65;;;;;;;;;;2076598;28;20172;-63
2021/11/12 06:16:58;;;;;;;73.50;41.60;;;;;;;;;;2068518;28;20265;-64
2021/11/12 06:17:58;;;;;;;70.50;41.05;;;;;;;;;;2072452;28;20718;-64
2021/11/12 06:18:58;;;;;;;69.90;41.40;;;;;;;;;;2067690;28;21614;-63
2021/11/12 06:19:59;;;;;;;60.35;40.13;;;;;;;;;;2069105;28;20177;-64
2021/11/12 06:20:59;;;;;;;67.05;41.78;;;;;;;;;;2069994;28;20270;-65
2021/11/12 06:21:59;;;;;;;66.07;39.90;;;;;;;;;;2068367;28;20702;-63
2021/11/12 06:22:59;;;;;;;71.82;41.33;;;;;;;;;;2069697;28;20174;-63
2021/11/12 06:24:00;;;;;;;67.07;40.45;;;;;;;;;;2066260;28;20193;-63
2021/11/12 06:25:00;;;;;;;70.07;40.30;;;;;;;;;;2067499;28;20233;-58
2021/11/12 06:26:01;;;;;;;68.65;41.42;;;;;;;;;;2069577;28;20190;-60
2021/11/12 06:27:01;;;;;;;69.65;40.65;;;;;;;;;;2075537;28;20161;-65
2021/11/12 06:28:01;;;;;;;68.40;38.97;;;;;;;;;;2062904;28;20286;-63
2021/11/12 06:29:02;;;;;;;61.67;38.15;;;;;;;;;;2067679;28;20165;-64
2021/11/12 06:30:03;;;;;;;61.92;39.92;;;;;;;;;;2076927;28;20172;-62
2021/11/12 06:31:04;;;;;;;72.22;40.60;;;;;;;;;;2078864;28;20184;-66
2021/11/12 06:32:05;;;;;;;63.85;40.28;;;;;;;;;;2068018;28;20217;-65
2021/11/12 06:33:05;;;;;;;59.47;39.20;;;;;;;;;;2075648;28;20196;-64
2021/11/12 06:34:05;;;;;;;58.83;38.05;;;;;;;;;;2075875;28;20184;-63
2021/11/12 06:35:06;;;;;;;69.40;40.05;;;;;;;;;;2069284;28;20196;-65
2021/11/12 06:36:07;;;;;;;61.53;38.53;;;;;;;;;;2064167;28;20186;-63
2021/11/12 06:37:07;;;;;;;60.80;39.63;;;;;;;;;;2067218;28;20202;-61
2021/11/12 06:38:10;;;;;;;60.53;36.83;;;;;;;;;;2066027;28;20181;-58
2021/11/12 06:39:10;;;;;;;62.00;37.22;;;;;;;;;;2071081;28;20165;-61
2021/11/12 06:40:17;;;;;;;61.10;38.40;;;;;;;;;;2067296;28;20174;-67
2021/11/12 06:41:28;;;;;;;58.47;38.78;;;;;;;;;;2064499;28;20232;-64
2021/11/12 06:42:32;;;;;;;61.58;38.00;;;;;;;;;;2073821;28;20219;-64
2021/11/12 06:43:51;;;;;;;56.78;36.83;;;;;;;;;;2066588;28;20197;-61
2021/11/12 06:50:12;;;;;;;54.88;33.38;;;;;;;;;;2067418;28;20173;-63
2021/11/12 06:51:14;;;;;;;55.55;35.67;;;;;;;;;;2067257;28;20208;-63
2021/11/12 06:52:16;;;;;;;56.85;34.60;;;;;;;;;;2067154;28;20198;-65
2021/11/12 06:53:16;;;;;;;52.80;35.25;;;;;;;;;;2067085;28;20170;-60
2021/11/12 06:54:17;;;;;;;59.60;37.20;;;;;;;;;;2068573;28;20194;-64
2021/11/12 06:55:17;;;;;;;56.08;36.90;;;;;;;;;;2075495;28;20256;-62
2021/11/12 06:56:19;;;;;;;56.95;37.08;;;;;;;;;;2077000;28;20177;-61
2021/11/12 06:57:20;;;;;;;60.17;37.65;;;;;;;;;;2073088;28;20180;-63
2021/11/12 06:58:21;;;;;;;55.47;36.53;;;;;;;;;;2075404;28;20157;-65
2021/11/12 06:59:21;;;;;;;53.67;35.45;;;;;;;;;;2072746;28;20185;-65
2021/11/12 07:00:22;;;;;;;57.55;36.55;;;;;;;;;;2065787;28;20173;-64
2021/11/12 07:01:24;;;;;;;57.38;36.60;;;;;;;;;;2066854;28;20193;-63
2021/11/12 07:02:25;;;;;;;51.10;35.70;;;;;;;;;;2066525;28;20224;-62
2021/11/12 07:03:26;;;;;;;57.63;36.00;;;;;;;;;;2065285;28;20182;-62
2021/11/12 07:04:26;;;;;;;53.47;35.70;;;;;;;;;;2062555;28;20214;-64
2021/11/12 07:05:27;;;;;;;52.20;35.95;;;;;;;;;;2063445;28;20178;-58
2021/11/12 07:06:27;;;;;;;59.75;37.60;;;;;;;;;;2065780;28;20177;-64
2021/11/12 07:07:28;;;;;;;59.42;36.08;;;;;;;;;;2059533;28;20230;-62
2021/11/12 07:08:29;;;;;;;54.80;37.38;;;;;;;;;;2059433;28;20177;-62
2021/11/12 07:09:29;;;;;;;60.22;37.05;;;;;;;;;;2065415;28;20186;-61
2021/11/12 07:10:29;;;;;;;57.55;37.22;;;;;;;;;;2065968;28;20217;-62
2021/11/12 07:11:30;;;;;;;61.72;39.55;;;;;;;;;;2064380;28;20260;-63
2021/11/12 07:12:30;;;;;;;57.83;37.50;;;;;;;;;;2067624;28;20229;-63
2021/11/12 07:13:30;;;;;;;57.40;35.92;;;;;;;;;;2064636;28;20191;-63
2021/11/12 07:14:31;;;;;;;54.47;37.35;;;;;;;;;;2064437;28;20666;-59
2021/11/12 07:15:31;;;;;;;56.75;36.05;;;;;;;;;;2066893;28;20201;-64
2021/11/12 07:16:32;;;;;;;53.17;36.50;;;;;;;;;;2068596;28;20194;-63
2021/11/12 07:17:32;;;;;;;54.10;35.45;;;;;;;;;;2068849;28;20213;-64
2021/11/12 07:18:32;;;;;;;56.10;35.97;;;;;;;;;;2067659;28;20189;-61
2021/11/12 07:19:33;;;;;;;57.75;36.70;;;;;;;;;;2067504;28;20181;-61
2021/11/12 07:20:33;;;;;;;55.92;36.97;;;;;;;;;;2066311;28;20178;-64
2021/11/12 07:21:33;;;;;;;60.15;37.25;;;;;;;;;;2067455;28;20178;-63
2021/11/12 07:22:34;;;;;;;58.00;37.15;;;;;;;;;;2067224;28;20177;-59
2021/11/12 07:23:34;;;;;;;65.00;38.50;;;;;;;;;;2067642;28;20181;-61
2021/11/12 07:24:35;;;;;;;69.00;40.70;;;;;;;;;;2065073;28;20256;-65
2021/11/12 07:25:35;;;;;;;63.15;39.05;;;;;;;;;;2067217;28;20182;-60
2021/11/12 07:26:35;;;;;;;64.85;40.97;;;;;;;;;;2066679;28;20181;-64
2021/11/12 07:27:36;;;;;;;58.38;39.33;;;;;;;;;;2068131;28;20181;-66
2021/11/12 07:28:37;;;;;;;64.28;38.38;;;;;;;;;;2071147;28;20228;-62
2021/11/12 07:29:39;;;;;;;64.82;40.67;;;;;;;;;;2068061;28;20174;-65
2021/11/12 07:30:43;;;;;;;63.00;39.63;;;;;;;;;;2073458;28;20181;-63
2021/11/12 07:31:44;;;;;;;66.72;38.92;;;;;;;;;;2069841;28;20204;-64
2021/11/12 07:32:45;;;;;;;68.07;41.42;;;;;;;;;;2068817;28;20656;-62
2021/11/12 07:33:46;;;;;;;67.05;40.88;;;;;;;;;;2077203;28;20189;-63
2021/11/12 07:34:50;;;;;;;65.88;40.78;;;;;;;;;;2075476;28;20200;-64
2021/11/12 07:36:00;;;;;;;63.75;40.83;;;;;;;;;;2063915;28;20184;-60
2021/11/12 07:37:07;;;;;;;62.03;40.40;;;;;;;;;;2068147;28;20433;-63
2021/11/12 07:38:17;;;;;;;63.15;39.58;;;;;;;;;;2066012;28;20233;-64
2021/11/12 07:40:34;;;;;;;71.55;41.75;;;;;;;;;;2061880;28;20165;-65
2021/11/12 07:42:04;;;;;;;87.35;53.60;;;;;;;;;;2065497;28;20316;-65
2021/11/12 07:44:19;;;;;;;69.53;44.40;;;;;;;;;;2067563;28;20295;-65
2021/11/12 07:45:38;;;;;;;75.90;47.17;;;;;;;;;;2068527;28;20679;-67
2021/11/12 07:46:42;;;;;;;99.15;57.10;;;;;;;;;;2071514;28;20186;-65
2021/11/12 07:47:42;;;;;;;89.38;49.97;;;;;;;;;;2072285;28;20264;-64
2021/11/12 07:48:43;;;;;;;84.70;48.65;;;;;;;;;;2071043;28;20208;-65
2021/11/12 07:49:44;;;;;;;75.95;43.22;;;;;;;;;;2068034;28;20216;-64
2021/11/12 07:50:44;;;;;;;71.68;42.00;;;;;;;;;;2069841;28;20174;-65
2021/11/12 07:51:45;;;;;;;82.38;46.00;;;;;;;;;;2075430;28;20166;-65
2021/11/12 07:52:45;;;;;;;71.10;42.65;;;;;;;;;;2069937;28;20170;-64
2021/11/12 07:53:46;;;;;;;79.25;41.97;;;;;;;;;;2068886;28;20192;-64
2021/11/12 07:54:47;;;;;;;140.18;72.30;;;;;;;;;;2070888;28;20210;-63
2021/11/12 07:55:48;;;;;;;71.95;42.25;;;;;;;;;;2069602;28;20192;-64
2021/11/12 07:56:49;;;;;;;106.72;59.13;;;;;;;;;;2069556;28;20196;-68
2021/11/12 07:57:49;;;;;;;95.53;51.67;;;;;;;;;;2068809;28;20205;-62
2021/11/12 07:58:49;;;;;;;69.57;39.15;;;;;;;;;;2070756;28;20216;-64
2021/11/12 07:59:49;;;;;;;96.45;54.03;;;;;;;;;;2069310;28;20687;-65
2021/11/12 08:00:50;;;;;;;81.07;45.08;;;;;;;;;;2069118;28;20193;-63
2021/11/12 08:01:51;;;;;;;83.97;48.05;;;;;;;;;;2068520;28;20705;-66
2021/11/12 08:02:51;;;;;;;72.95;42.45;;;;;;;;;;2068993;28;20628;-62
2021/11/12 08:03:57;;;;;;;68.82;42.45;;;;;;;;;;2069072;28;20174;-60
2021/11/12 08:05:07;;;;;;;72.80;40.15;;;;;;;;;;2068018;28;20232;-64
2021/11/12 08:06:11;;;;;;;66.32;38.28;;;;;;;;;;2067566;28;20193;-63
2021/11/12 08:07:12;;;;;;;59.80;38.92;;;;;;;;;;2070140;28;20189;-63
2021/11/12 08:08:15;;;;;;;66.05;40.40;;;;;;;;;;2067340;28;20787;-63
2021/11/12 08:09:16;;;;;;;54.83;35.53;;;;;;;;;;2068590;28;20180;-64
2021/11/12 08:10:19;;;;;;;67.28;37.17;;;;;;;;;;2064192;28;20174;-64
2021/11/12 08:11:26;;;;;;;62.22;39.65;;;;;;;;;;2066064;28;20177;-65
2021/11/12 08:12:35;;;;;;;65.32;37.88;;;;;;;;;;2055936;28;20276;-64
2021/11/12 08:15:09;;;;;;;60.17;34.25;;;;;;;;;;2068013;28;20202;-65
2021/11/12 08:16:32;;;;;;;51.88;32.20;;;;;;;;;;2065342;28;20233;-64
2021/11/12 08:18:01;;;;;;;50.30;31.20;;;;;;;;;;2065901;28;20590;-62
2021/11/12 08:19:08;;;;;;;53.65;31.17;;;;;;;;;;2067334;28;20169;-66
2021/11/12 08:20:18;;;;;;;48.88;32.92;;;;;;;;;;2058874;28;20182;-65
2021/11/12 08:21:28;;;;;;;52.58;31.88;;;;;;;;;;2069818;28;20172;-65
2021/11/12 08:22:57;;;;;;;49.70;32.40;;;;;;;;;;2062481;28;20204;-59
2021/11/12 08:24:00;;;;;;;46.17;29.27;;;;;;;;;;2068108;28;20181;-64
2021/11/12 08:25:19;;;;;;;40.60;26.80;;;;;;;;;;2066763;28;20222;-62
2021/11/12 08:28:52;;;;;;;30.23;22.48;;;;;;;;;;2060467;28;20190;-64
2021/11/12 08:29:58;;;;;;;30.27;21.33;;;;;;;;;;2065211;28;20196;-66
2021/11/12 08:31:20;;;;;;;28.00;19.75;;;;;;;;;;2065629;28;20176;-58
2021/11/12 08:34:44;;;;;;;17.58;14.60;;;;;;;;;;2062827;28;20244;-64
2021/11/12 08:38:00;;;;;;;17.13;13.93;;;;;;;;;;2064065;28;20853;-64
2021/11/12 08:39:12;;;;;;;19.55;15.65;;;;;;;;;;2068508;28;20180;-65
2021/11/12 08:41:26;;;;;;;16.67;14.82;;;;;;;;;;2064691;28;20224;-63
2021/11/12 08:42:34;;;;;;;16.15;13.98;;;;;;;;;;2063958;28;20713;-66
2021/11/12 08:43:39;;;;;;;16.38;12.38;;;;;;;;;;2064515;28;20181;-63
2021/11/12 08:44:46;;;;;;;14.55;13.05;;;;;;;;;;2065336;28;20200;-64
2021/11/12 08:46:53;;;;;;;17.38;12.30;;;;;;;;;;2066789;28;20658;-63
2021/11/12 08:47:58;;;;;;;17.25;12.60;;;;;;;;;;2073375;28;20252;-65
2021/11/12 08:49:07;;;;;;;14.02;12.02;;;;;;;;;;2072333;28;20220;-65
2021/11/12 08:50:13;;;;;;;14.85;12.13;;;;;;;;;;2065175;28;20551;-59
2021/11/12 08:51:15;;;;;;;19.92;14.48;;;;;;;;;;2065098;28;20632;-65
2021/11/12 08:52:17;;;;;;;34.10;15.25;;;;;;;;;;2065029;28;20209;-64
2021/11/12 08:53:18;;;;;;;27.20;15.18;;;;;;;;;;2067103;28;20178;-66
2021/11/12 08:54:24;;;;;;;34.90;16.05;;;;;;;;;;2064408;28;20221;-64
2021/11/12 08:55:29;;;;;;;23.00;14.20;;;;;;;;;;2071962;28;20176;-62
2021/11/12 08:56:29;;;;;;;21.48;13.10;;;;;;;;;;2072503;28;20165;-65
2021/11/12 08:57:30;;;;;;;26.30;14.38;;;;;;;;;;2064991;28;20182;-62
2021/11/12 08:58:30;;;;;;;23.65;14.30;;;;;;;;;;2071685;28;20641;-63
2021/11/12 08:59:31;;;;;;;28.90;14.95;;;;;;;;;;2072860;28;20195;-64
2021/11/12 09:00:31;;;;;;;25.90;13.52;;;;;;;;;;2072573;28;20256;-63
2021/11/12 09:01:32;;;;;;;28.33;13.60;;;;;;;;;;2064297;28;20204;-66
2021/11/12 09:02:33;;;;;;;23.17;13.18;;;;;;;;;;2064305;28;20182;-66
2021/11/12 09:03:33;;;;;;;17.98;13.02;;;;;;;;;;2065195;28;20672;-64
2021/11/12 09:04:34;;;;;;;19.10;13.05;;;;;;;;;;2063967;28;20228;-65
2021/11/12 09:05:34;;;;;;;16.98;13.48;;;;;;;;;;2063891;28;20193;-64
2021/11/12 09:06:35;;;;;;;20.58;14.27;;;;;;;;;;2063822;28;20209;-64
2021/11/12 09:07:36;;;;;;;16.95;12.82;;;;;;;;;;2080698;28;20179;-62
2021/11/12 09:08:37;;;;;;;14.27;12.40;;;;;;;;;;2070731;28;20184;-62
2021/11/12 09:09:37;;;;;;;15.55;13.70;;;;;;;;;;2063806;28;20689;-63
2021/11/12 09:10:38;;;;;;;14.88;12.23;;;;;;;;;;2064089;28;20206;-63
2021/11/12 09:11:41;;;;;;;15.35;12.32;;;;;;;;;;2065175;28;20181;-63
2021/11/12 09:12:44;;;;;;;15.48;12.80;;;;;;;;;;2065888;28;20308;-63